Terminal Aerodrome Forecast
Issued by NWS

Current Version | Previous Version | Text Only | Print | Product List | Glossary Off
Versions: 1 2 3 4 5 6 7 8 9 10 11 12 13 14 15 16 17 18 19 20 21 22 23

000
FTUS41 KRLX 222000 AAB
TAFCKB
TAF AMD
KCKB 222006Z 2220/2318 34020G30KT P6SM SHRA VCTS SCT015 BKN035CB
     FM222030 32010G15KT P6SM BKN045
     FM231300 30010G15KT P6SM SCT060=

USA.gov is the U.S. government's official web portal to all federal, state and local government web resources and services.